Time;durP1;ratioP1;P1;durP2;ratioP2;P2;SDS_P1;SDS_P2;PMS_P1;PMS_P2;Temp;Humidity;BMP_temperature;BMP_pressure;BME280_temperature;BME280_humidity;BME280_pressure;Samples;Min_cycle;Max_cycle;Signal;HPM_P1;HPM_P2
2021/07/11 00:00:28;;;;;;;1999.90;999.90;;;;;;;19.86;60.71;95566.22;5070536;28;20201;-72
2021/07/11 00:02:57;;;;;;;1999.90;999.90;;;;;;;19.84;60.09;95559.75;5070181;28;20205;-73
2021/07/11 00:05:26;;;;;;;1999.90;999.90;;;;;;;19.85;59.71;95562.03;5070103;28;20202;-73
2021/07/11 00:07:53;;;;;;;1999.90;999.90;;;;;;;19.85;59.51;95562.03;5069894;28;20209;-72
2021/07/11 00:10:22;;;;;;;1999.90;999.90;;;;;;;19.78;59.96;95567.19;5068931;28;20220;-73
2021/07/11 00:12:51;;;;;;;1999.90;999.90;;;;;;;19.63;60.25;95568.81;5070310;28;20201;-73
2021/07/11 00:15:20;;;;;;;1999.90;999.90;;;;;;;19.49;61.14;95563.25;5069941;28;20189;-73
2021/07/11 00:17:50;;;;;;;1999.90;999.90;;;;;;;19.46;61.18;95563.97;5069920;28;20274;-72
2021/07/11 00:20:20;;;;;;;1999.90;999.90;;;;;;;19.39;62.27;95563.78;5070165;28;20192;-72
2021/07/11 00:22:47;;;;;;;1999.90;999.90;;;;;;;19.45;61.47;95559.81;5069776;28;20295;-71
2021/07/11 00:25:17;;;;;;;1999.90;999.90;;;;;;;19.36;62.61;95561.88;5070019;28;20242;-72
2021/07/11 00:27:45;;;;;;;1999.90;999.90;;;;;;;19.31;62.45;95567.41;5069675;28;20609;-72
2021/07/11 00:30:14;;;;;;;1999.90;999.90;;;;;;;19.35;63.03;95562.97;5069575;28;20220;-74
2021/07/11 00:32:41;;;;;;;1999.90;999.90;;;;;;;19.38;63.16;95562.25;5070013;28;20564;-72
2021/07/11 00:35:10;;;;;;;1999.90;999.90;;;;;;;19.30;63.19;95566.66;5069525;28;20199;-72
2021/07/11 00:37:39;;;;;;;1999.90;999.90;;;;;;;19.31;62.93;95562.13;5069746;28;20204;-72
2021/07/11 00:40:09;;;;;;;1999.90;999.90;;;;;;;19.26;64.03;95562.41;5068818;28;20575;-72
2021/07/11 00:42:36;;;;;;;1999.90;999.90;;;;;;;19.07;64.05;95567.69;5069791;28;20279;-71
2021/07/11 00:45:04;;;;;;;1999.90;999.90;;;;;;;18.96;64.69;95566.69;5069651;28;20199;-72
2021/07/11 00:47:31;;;;;;;1999.90;999.90;;;;;;;18.94;65.10;95559.13;5069422;28;20207;-71
2021/07/11 00:49:59;;;;;;;1999.90;999.90;;;;;;;18.92;65.38;95562.13;5069269;28;20224;-72
2021/07/11 00:52:26;;;;;;;1999.90;999.90;;;;;;;19.05;64.57;95554.84;5069552;28;20196;-72
2021/07/11 00:54:54;;;;;;;1999.90;999.90;;;;;;;18.90;65.24;95558.28;5069564;28;20226;-72
2021/07/11 00:57:22;;;;;;;1999.90;999.90;;;;;;;18.92;64.94;95556.09;5069508;28;20242;-71
2021/07/11 00:59:49;;;;;;;1999.90;999.90;;;;;;;18.81;64.64;95555.09;5069202;28;20193;-72
2021/07/11 01:02:19;;;;;;;1999.90;999.90;;;;;;;18.73;64.87;95558.69;5069161;28;20199;-72
2021/07/11 01:04:53;;;;;;;1999.90;999.90;;;;;;;18.66;64.68;95547.97;5069452;28;20689;-72
2021/07/11 01:07:26;;;;;;;1999.90;999.90;;;;;;;18.57;65.01;95548.19;5069424;28;20203;-71
2021/07/11 01:09:59;;;;;;;1999.90;999.90;;;;;;;18.44;65.71;95549.34;5069172;28;20587;-72
2021/07/11 01:12:29;;;;;;;1999.90;999.90;;;;;;;18.39;66.32;95549.59;5069493;28;20197;-72
2021/07/11 01:15:00;;;;;;;1999.90;999.90;;;;;;;18.32;66.85;95541.56;5069021;28;20189;-72
2021/07/11 01:17:28;;;;;;;1999.90;999.90;;;;;;;18.29;66.84;95542.22;5069447;28;20215;-72
2021/07/11 01:20:05;;;;;;;1999.90;999.90;;;;;;;18.13;67.75;95546.75;5069322;28;20200;-72
2021/07/11 01:22:40;;;;;;;1999.90;999.90;;;;;;;18.12;67.70;95534.69;5069070;28;20224;-72
2021/07/11 01:25:12;;;;;;;1999.90;999.90;;;;;;;18.13;67.43;95530.97;5069009;28;20184;-72
2021/07/11 01:27:43;;;;;;;1999.90;999.90;;;;;;;18.08;67.78;95543.25;5068925;28;20315;-72
2021/07/11 01:30:11;;;;;;;1999.90;999.90;;;;;;;18.10;68.50;95539.50;5068860;28;20216;-72
2021/07/11 01:32:40;;;;;;;1999.90;999.90;;;;;;;18.14;68.48;95540.34;5068704;28;20200;-72
2021/07/11 01:35:09;;;;;;;1999.90;999.90;;;;;;;17.98;68.73;95546.38;5069093;28;20204;-72
2021/07/11 01:37:37;;;;;;;1999.90;999.90;;;;;;;17.94;68.78;95545.53;5068800;28;20254;-71
2021/07/11 01:40:08;;;;;;;1999.90;999.90;;;;;;;17.89;69.02;95542.38;5068815;28;20214;-72
2021/07/11 01:42:36;;;;;;;1999.90;999.90;;;;;;;17.92;69.09;95539.88;5068756;28;20209;-72
2021/07/11 01:45:06;;;;;;;1999.90;999.90;;;;;;;17.84;69.31;95540.78;5068628;28;20202;-72
2021/07/11 01:47:34;;;;;;;1999.90;999.90;;;;;;;17.81;69.94;95543.31;5069064;28;20192;-72
2021/07/11 01:50:02;;;;;;;1999.90;999.90;;;;;;;17.86;69.29;95537.81;5068841;28;20631;-72
2021/07/11 01:52:29;;;;;;;1999.90;999.90;;;;;;;17.70;70.41;95544.91;5071952;28;20204;-73
2021/07/11 01:54:57;;;;;;;1999.90;999.90;;;;;;;17.61;70.33;95552.94;5073029;28;20203;-72
2021/07/11 01:57:24;;;;;;;1999.90;999.90;;;;;;;17.58;71.08;95550.97;5072335;28;20193;-72
2021/07/11 01:59:51;;;;;;;1999.90;999.90;;;;;;;17.38;72.09;95544.81;5072590;28;20587;-72
2021/07/11 02:02:20;;;;;;;1999.90;999.90;;;;;;;17.42;71.94;95550.16;5062396;28;20248;-72
2021/07/11 02:04:47;;;;;;;1999.90;999.90;;;;;;;17.47;71.82;95552.56;5068589;28;20199;-72
2021/07/11 02:07:14;;;;;;;1999.90;999.90;;;;;;;17.39;72.23;95550.81;5071485;28;20912;-71
2021/07/11 02:09:42;;;;;;;1999.90;999.90;;;;;;;17.43;72.66;95552.47;5071406;28;20214;-71
2021/07/11 02:12:11;;;;;;;1999.90;999.90;;;;;;;17.41;72.84;95548.63;5072230;28;20193;-72
2021/07/11 02:14:42;;;;;;;1999.90;999.90;;;;;;;17.48;72.71;95551.47;5072235;28;20204;-71
2021/07/11 02:17:11;;;;;;;1999.90;999.90;;;;;;;17.49;72.56;95550.34;5072379;28;20620;-72
2021/07/11 02:19:41;;;;;;;1999.90;999.90;;;;;;;17.55;71.97;95551.63;5072107;28;20240;-71
2021/07/11 02:22:10;;;;;;;1999.90;999.90;;;;;;;17.50;72.13;95552.63;5073000;28;20196;-72
2021/07/11 02:24:39;;;;;;;1999.90;999.90;;;;;;;17.58;72.04;95559.59;5072458;28;20207;-71
2021/07/11 02:27:07;;;;;;;1999.90;999.90;;;;;;;17.49;71.82;95555.59;5072138;28;20200;-71
2021/07/11 02:29:38;;;;;;;1999.90;999.90;;;;;;;17.46;72.64;95551.00;5071988;28;20236;-71
2021/07/11 02:32:08;;;;;;;1999.90;999.90;;;;;;;17.33;72.95;95558.19;5072006;28;20747;-72
2021/07/11 02:34:36;;;;;;;1999.90;999.90;;;;;;;17.37;72.77;95555.66;5071858;28;20204;-71
2021/07/11 02:37:06;;;;;;;1999.90;999.90;;;;;;;17.40;73.14;95550.50;5072003;28;20661;-72
2021/07/11 02:39:36;;;;;;;1999.90;999.90;;;;;;;17.37;72.81;95558.28;5071931;28;20645;-71
2021/07/11 02:42:07;;;;;;;1999.90;999.90;;;;;;;17.45;73.48;95554.75;5071800;28;20669;-71
2021/07/11 02:44:36;;;;;;;1999.90;999.90;;;;;;;17.55;72.20;95564.78;5072073;28;20189;-72
2021/07/11 02:47:18;;;;;;;1999.90;999.90;;;;;;;17.51;72.29;95556.78;5071779;28;20288;-72
2021/07/11 02:49:51;;;;;;;1999.90;999.90;;;;;;;17.56;72.35;95561.03;5071795;28;20199;-72
2021/07/11 02:52:22;;;;;;;1999.90;999.90;;;;;;;17.61;72.42;95566.09;5071689;28;20874;-72
2021/07/11 02:54:54;;;;;;;1999.90;999.90;;;;;;;17.65;72.42;95569.56;5071951;28;20188;-72
2021/07/11 02:57:27;;;;;;;1999.90;999.90;;;;;;;17.67;72.27;95570.00;5071593;28;20283;-72
2021/07/11 02:59:55;;;;;;;1999.90;999.90;;;;;;;17.67;71.73;95566.63;5071833;28;20277;-72
2021/07/11 03:02:24;;;;;;;1999.90;999.90;;;;;;;17.63;71.96;95567.28;5071108;28;20196;-71
2021/07/11 03:04:52;;;;;;;1999.90;999.90;;;;;;;17.64;72.16;95575.91;5071301;28;20223;-72
2021/07/11 03:07:21;;;;;;;1999.90;999.90;;;;;;;17.72;71.27;95580.28;5071393;28;20206;-72
2021/07/11 03:09:48;;;;;;;1999.90;999.90;;;;;;;17.68;71.74;95578.66;5071181;28;20208;-72
2021/07/11 03:12:18;;;;;;;1999.90;999.90;;;;;;;17.67;71.69;95585.78;5071095;28;20224;-72
2021/07/11 03:14:48;;;;;;;1999.90;999.90;;;;;;;17.56;72.33;95582.84;5071497;28;20211;-71
2021/07/11 03:17:21;;;;;;;1999.90;999.90;;;;;;;17.49;72.46;95589.75;5071168;28;20246;-72
2021/07/11 03:19:53;;;;;;;1999.90;999.90;;;;;;;17.51;73.08;95592.81;5071397;28;20204;-71
2021/07/11 03:22:25;;;;;;;1999.90;999.90;;;;;;;17.44;72.66;95590.00;5071362;28;20193;-72
2021/07/11 03:24:55;;;;;;;1999.90;999.90;;;;;;;17.37;73.26;95589.81;5071246;28;20204;-72
2021/07/11 03:27:23;;;;;;;1999.90;999.90;;;;;;;17.32;73.73;95590.03;5070790;28;20207;-71
2021/07/11 03:30:01;;;;;;;1999.90;999.90;;;;;;;17.37;73.64;95595.06;5071249;28;20188;-72
2021/07/11 03:32:30;;;;;;;1999.90;999.90;;;;;;;17.38;73.66;95604.47;5070841;28;20295;-72
2021/07/11 03:35:01;;;;;;;1999.90;999.90;;;;;;;17.31;74.59;95606.91;5071196;28;20197;-72
2021/07/11 03:37:32;;;;;;;1999.90;999.90;;;;;;;17.17;78.11;95600.16;5070735;28;20238;-72
2021/07/11 03:40:02;;;;;;;1999.90;999.90;;;;;;;17.08;78.75;95604.78;5070790;28;20569;-72
2021/07/11 03:42:35;;;;;;;1999.90;999.90;;;;;;;17.07;78.95;95599.84;5070745;28;20200;-71
2021/07/11 03:45:02;;;;;;;1999.90;999.90;;;;;;;17.03;79.74;95602.38;5070632;28;20619;-72
2021/07/11 03:47:38;;;;;;;1999.90;999.90;;;;;;;16.98;80.13;95599.97;5070472;28;20252;-71
2021/07/11 03:50:07;;;;;;;1999.90;999.90;;;;;;;16.99;80.29;95606.75;5070725;28;20195;-72
2021/07/11 03:52:43;;;;;;;1999.90;999.90;;;;;;;16.97;80.62;95601.06;5070532;28;20694;-72
2021/07/11 03:55:11;;;;;;;1999.90;999.90;;;;;;;16.93;81.30;95610.72;5070057;28;20196;-72
2021/07/11 03:57:39;;;;;;;1999.90;999.90;;;;;;;16.97;81.67;95611.56;5070307;28;20212;-72
2021/07/11 04:00:08;;;;;;;1999.90;999.90;;;;;;;17.11;81.57;95601.47;5070819;28;20197;-71
2021/07/11 04:02:38;;;;;;;1999.90;999.90;;;;;;;17.14;81.54;95607.91;5070514;28;20201;-72
2021/07/11 04:05:07;;;;;;;1999.90;999.90;;;;;;;17.26;81.10;95607.13;5070337;28;20200;-72
2021/07/11 04:07:36;;;;;;;1999.90;999.90;;;;;;;17.44;79.66;95611.00;5070316;28;20197;-72
2021/07/11 04:10:08;;;;;;;1999.90;999.90;;;;;;;17.52;79.04;95607.50;5070988;28;20200;-72
2021/07/11 04:12:35;;;;;;;1999.90;999.90;;;;;;;17.61;78.10;95608.13;5071098;28;20304;-71
2021/07/11 04:15:02;;;;;;;1999.90;999.90;;;;;;;17.63;77.01;95603.31;5070012;28;20208;-71
2021/07/11 04:17:31;;;;;;;1999.90;999.90;;;;;;;17.75;77.13;95608.50;5069940;28;20196;-71
2021/07/11 04:20:01;;;;;;;1999.90;999.90;;;;;;;17.91;75.00;95605.94;5070162;28;20295;-71
2021/07/11 04:22:29;;;;;;;1999.90;999.90;;;;;;;17.95;74.57;95609.41;5069730;28;20199;-72
2021/07/11 04:24:57;;;;;;;1999.90;999.90;;;;;;;18.11;74.61;95609.44;5069704;28;20199;-71
2021/07/11 04:27:27;;;;;;;1999.90;999.90;;;;;;;18.29;73.62;95613.25;5069622;28;20204;-72
2021/07/11 04:29:55;;;;;;;1999.90;999.90;;;;;;;18.38;74.86;95616.50;5069737;28;20188;-71
2021/07/11 04:32:22;;;;;;;1999.90;999.90;;;;;;;18.53;77.88;95622.88;5069804;28;20234;-72
2021/07/11 04:34:50;;;;;;;1999.90;999.90;;;;;;;18.97;77.68;95634.06;5069859;28;20196;-72
2021/07/11 04:37:18;;;;;;;1999.90;999.90;;;;;;;19.45;77.55;95630.97;5069805;28;20200;-72
2021/07/11 04:39:45;;;;;;;1999.90;999.90;;;;;;;19.94;75.46;95622.47;5069532;28;20204;-72
2021/07/11 04:42:13;;;;;;;1999.90;999.90;;;;;;;20.53;72.32;95622.78;5069853;28;20231;-72
2021/07/11 04:44:44;;;;;;;1999.90;999.90;;;;;;;21.00;69.37;95621.59;5069557;28;20748;-72
2021/07/11 04:47:11;;;;;;;1999.90;999.90;;;;;;;21.43;66.71;95629.00;5069594;28;20184;-72
2021/07/11 04:49:38;;;;;;;1999.90;999.90;;;;;;;21.57;66.07;95625.75;5069632;28;20572;-72
2021/07/11 04:52:06;;;;;;;1999.90;999.90;;;;;;;21.61;65.10;95618.66;5069270;28;20643;-72
2021/07/11 04:54:34;;;;;;;1999.90;999.90;;;;;;;22.09;63.37;95616.91;5069327;28;20287;-72
2021/07/11 04:57:02;;;;;;;1999.90;999.90;;;;;;;22.18;63.47;95624.56;5069286;28;20211;-72
2021/07/11 04:59:30;;;;;;;1999.90;999.90;;;;;;;21.85;63.99;95627.97;5069471;28;20201;-73
2021/07/11 05:01:58;;;;;;;1999.90;999.90;;;;;;;21.78;62.91;95625.25;5069534;28;20192;-72
2021/07/11 05:04:26;;;;;;;1999.90;999.90;;;;;;;21.68;63.80;95634.59;5069093;28;20287;-72
2021/07/11 05:06:53;;;;;;;1999.90;999.90;;;;;;;21.79;63.61;95629.41;5069212;28;20200;-72
2021/07/11 05:09:20;;;;;;;1999.90;999.90;;;;;;;22.06;62.22;95633.53;5069430;28;20580;-72
2021/07/11 05:11:47;;;;;;;1999.90;999.90;;;;;;;22.35;60.67;95639.84;5069259;28;20224;-72
2021/07/11 05:14:14;;;;;;;1999.90;999.90;;;;;;;22.31;61.67;95637.19;5069454;28;20917;-72
2021/07/11 05:16:42;;;;;;;1999.90;999.90;;;;;;;22.37;61.67;95639.47;5069175;28;20196;-72
2021/07/11 05:19:10;;;;;;;1999.90;999.90;;;;;;;22.64;59.06;95633.66;5069144;28;20200;-72
2021/07/11 05:21:38;;;;;;;1999.90;999.90;;;;;;;22.74;58.93;95630.38;5069489;28;20283;-71
2021/07/11 05:24:05;;;;;;;1999.90;999.90;;;;;;;22.99;57.94;95630.53;5068899;28;20200;-72
2021/07/11 05:26:33;;;;;;;1999.90;999.90;;;;;;;23.23;57.10;95623.09;5068715;28;20576;-72
2021/07/11 05:29:00;;;;;;;1999.90;999.90;;;;;;;23.22;57.90;95622.31;5068622;28;20236;-73
2021/07/11 05:31:27;;;;;;;1999.90;999.90;;;;;;;23.31;56.97;95614.81;5068694;28;20226;-73
2021/07/11 05:33:54;;;;;;;1999.90;999.90;;;;;;;23.44;56.46;95623.97;5069115;28;20196;-73
2021/07/11 05:36:23;;;;;;;1999.90;999.90;;;;;;;23.59;55.97;95627.47;5069123;28;20275;-73
2021/07/11 05:38:50;;;;;;;1999.90;999.90;;;;;;;23.72;55.73;95623.34;5068870;28;20262;-73
2021/07/11 05:41:17;;;;;;;1999.90;999.90;;;;;;;23.83;56.47;95618.06;5068800;28;20196;-73
2021/07/11 05:43:45;;;;;;;1999.90;999.90;;;;;;;23.60;58.04;95621.03;5069052;28;20243;-73
2021/07/11 05:46:12;;;;;;;1999.90;999.90;;;;;;;23.50;59.02;95624.41;5068674;28;20219;-73
2021/07/11 05:48:39;;;;;;;1999.90;999.90;;;;;;;23.48;58.38;95624.00;5068600;28;20611;-73
2021/07/11 05:51:06;;;;;;;1999.90;999.90;;;;;;;23.45;60.15;95622.09;5068664;28;20956;-73
2021/07/11 05:53:35;;;;;;;1999.90;999.90;;;;;;;23.49;59.23;95618.34;5068707;28;20192;-73
2021/07/11 05:56:02;;;;;;;1999.90;999.90;;;;;;;23.71;59.31;95635.09;5068866;28;20226;-73
2021/07/11 05:58:30;;;;;;;1999.90;999.90;;;;;;;23.96;59.00;95633.25;5068913;28;20201;-73
2021/07/11 06:00:57;;;;;;;1999.90;999.90;;;;;;;23.98;58.02;95631.00;5068901;28;20224;-73
2021/07/11 06:03:24;;;;;;;1999.90;999.90;;;;;;;24.30;56.92;95625.03;5068415;28;20200;-73
2021/07/11 06:05:52;;;;;;;1999.90;999.90;;;;;;;24.73;53.51;95620.47;5068582;28;20200;-73
2021/07/11 06:08:20;;;;;;;1999.90;999.90;;;;;;;24.92;53.10;95624.66;5068510;28;20203;-72
2021/07/11 06:10:52;;;;;;;1999.90;999.90;;;;;;;25.22;51.97;95625.00;5068464;28;20676;-72
2021/07/11 06:13:20;;;;;;;1999.90;999.90;;;;;;;25.25;52.67;95626.91;5068515;28;20188;-73
2021/07/11 06:15:47;;;;;;;1999.90;999.90;;;;;;;25.33;50.57;95617.75;5068771;28;20232;-72
2021/07/11 06:18:14;;;;;;;1999.90;999.90;;;;;;;25.50;50.14;95616.94;5068688;28;20215;-73
2021/07/11 06:20:42;;;;;;;1999.90;999.90;;;;;;;25.65;50.27;95615.00;5068532;28;20200;-72
2021/07/11 06:23:09;;;;;;;1999.90;999.90;;;;;;;25.69;51.25;95616.50;5068320;28;20189;-73
2021/07/11 06:25:36;;;;;;;1999.90;999.90;;;;;;;25.80;50.03;95618.38;5068258;28;20253;-72
2021/07/11 06:28:06;;;;;;;1999.90;999.90;;;;;;;25.92;49.22;95620.56;5068194;28;20319;-73
2021/07/11 06:30:34;;;;;;;1999.90;999.90;;;;;;;26.07;48.62;95612.13;5068497;28;20575;-73
2021/07/11 06:33:01;;;;;;;1999.90;999.90;;;;;;;26.35;48.04;95613.84;5068179;28;20311;-73
2021/07/11 06:35:28;;;;;;;1999.90;999.90;;;;;;;26.43;48.59;95615.34;5068493;28;20196;-72
2021/07/11 06:37:55;;;;;;;1999.90;999.90;;;;;;;26.63;47.33;95614.78;5068757;28;20200;-73
2021/07/11 06:40:25;;;;;;;1999.90;999.90;;;;;;;26.79;47.80;95618.47;5072033;28;20205;-72
2021/07/11 06:42:53;;;;;;;1999.90;999.90;;;;;;;26.77;48.27;95617.34;5071723;28;20192;-73
2021/07/11 06:45:21;;;;;;;1999.90;999.90;;;;;;;26.76;48.80;95613.91;5071652;28;20236;-73
2021/07/11 06:47:49;;;;;;;1999.90;999.90;;;;;;;26.83;47.58;95607.78;5071951;28;20203;-74
2021/07/11 06:50:17;;;;;;;1999.90;999.90;;;;;;;26.72;47.58;95604.44;5071978;28;20196;-73
2021/07/11 06:52:48;;;;;;;1999.90;999.90;;;;;;;26.86;47.94;95604.31;5072060;28;20319;-73
2021/07/11 06:55:15;;;;;;;1999.90;999.90;;;;;;;26.79;48.10;95602.47;5071395;28;20189;-74
2021/07/11 06:57:42;;;;;;;1999.90;999.90;;;;;;;26.69;48.59;95602.56;5071513;28;20665;-73
2021/07/11 07:00:12;;;;;;;1999.90;999.90;;;;;;;26.75;49.17;95601.00;5071372;28;20291;-73
2021/07/11 07:02:41;;;;;;;1999.90;999.90;;;;;;;27.09;48.20;95595.75;5071687;28;20296;-73
2021/07/11 07:05:10;;;;;;;1999.90;999.90;;;;;;;27.21;48.94;95595.97;5071588;28;20200;-73
2021/07/11 07:07:39;;;;;;;1999.90;999.90;;;;;;;27.50;47.91;95599.09;5071227;28;20212;-73
2021/07/11 07:10:09;;;;;;;1999.90;999.90;;;;;;;27.59;46.85;95602.06;5071581;28;20231;-73
2021/07/11 07:12:37;;;;;;;1999.90;999.90;;;;;;;27.73;47.71;95601.13;5071145;28;20579;-74
2021/07/11 07:15:06;;;;;;;1999.90;999.90;;;;;;;27.89;46.19;95598.63;5071073;28;20227;-74
2021/07/11 07:17:33;;;;;;;1999.90;999.90;;;;;;;28.12;44.80;95601.38;5071241;28;20679;-73
2021/07/11 07:20:04;;;;;;;1999.90;999.90;;;;;;;28.00;44.82;95601.88;5071176;28;20207;-74
2021/07/11 07:22:31;;;;;;;1999.90;999.90;;;;;;;28.07;45.35;95595.69;5070487;28;20185;-74
2021/07/11 07:24:58;;;;;;;1999.90;999.90;;;;;;;28.31;43.38;95593.84;5060277;28;20307;-73
2021/07/11 07:27:25;;;;;;;1999.90;999.90;;;;;;;28.29;42.87;95593.50;5070948;28;20200;-73
2021/07/11 07:29:53;;;;;;;1999.90;999.90;;;;;;;28.42;42.49;95603.22;5070885;28;20193;-74
2021/07/11 07:32:20;;;;;;;1999.90;999.90;;;;;;;28.39;42.37;95597.94;5071146;28;20228;-74
2021/07/11 07:34:47;;;;;;;1999.90;999.90;;;;;;;28.65;42.55;95591.78;5070847;28;20227;-73
2021/07/11 07:37:16;;;;;;;1999.90;999.90;;;;;;;28.92;40.37;95603.19;5071173;28;20201;-74
2021/07/11 07:39:43;;;;;;;1999.90;999.90;;;;;;;28.77;39.81;95601.16;5070755;28;20232;-73
2021/07/11 07:42:10;;;;;;;1999.90;999.90;;;;;;;28.70;39.15;95593.97;5070768;28;20672;-74
2021/07/11 07:44:37;;;;;;;1999.90;999.90;;;;;;;28.94;40.12;95594.75;5070579;28;20208;-74
2021/07/11 07:47:05;;;;;;;1999.90;999.90;;;;;;;28.79;39.85;95594.25;5070563;28;20250;-74
2021/07/11 07:49:33;;;;;;;1999.90;999.90;;;;;;;29.12;39.09;95597.09;5070235;28;20574;-74
2021/07/11 07:52:00;;;;;;;1999.90;999.90;;;;;;;29.14;35.52;95595.53;5070438;28;20281;-73
2021/07/11 07:54:29;;;;;;;1999.90;999.90;;;;;;;29.08;37.37;95592.59;5070785;28;20250;-74
2021/07/11 07:56:56;;;;;;;1999.90;999.90;;;;;;;29.34;36.58;95596.31;5070380;28;20583;-74
2021/07/11 07:59:23;;;;;;;1999.90;999.90;;;;;;;29.43;37.37;95593.09;5070765;28;20200;-73
2021/07/11 08:01:50;;;;;;;1999.90;999.90;;;;;;;29.27;37.12;95590.31;5070584;28;20287;-73
2021/07/11 08:04:20;;;;;;;1999.90;999.90;;;;;;;29.44;37.18;95584.63;5070538;28;20375;-74
2021/07/11 08:06:48;;;;;;;1999.90;999.90;;;;;;;29.40;36.51;95588.56;5070665;28;20280;-74
2021/07/11 08:09:16;;;;;;;1999.90;999.90;;;;;;;29.51;37.98;95579.16;5070189;28;20208;-74
2021/07/11 08:11:45;;;;;;;1999.90;999.90;;;;;;;29.72;37.01;95591.34;5070520;28;20298;-74
2021/07/11 08:14:13;;;;;;;1999.90;999.90;;;;;;;29.55;35.34;95595.16;5070640;28;20347;-73
2021/07/11 08:16:42;;;;;;;1999.90;999.90;;;;;;;29.39;37.43;95592.44;5070285;28;20200;-74
2021/07/11 08:19:09;;;;;;;1999.90;999.90;;;;;;;29.49;36.01;95586.06;5069819;28;20243;-74
2021/07/11 08:21:36;;;;;;;1999.90;999.90;;;;;;;29.55;36.22;95576.38;5069874;28;20624;-74
2021/07/11 08:24:04;;;;;;;1999.90;999.90;;;;;;;29.62;36.83;95572.81;5069888;28;20200;-74
2021/07/11 08:26:32;;;;;;;1999.90;999.90;;;;;;;29.78;38.43;95581.66;5070171;28;20291;-74
2021/07/11 08:29:00;;;;;;;1999.90;999.90;;;;;;;29.96;36.87;95575.19;5069531;28;20240;-74
2021/07/11 08:31:28;;;;;;;1999.90;999.90;;;;;;;30.01;37.06;95572.75;5069702;28;20288;-73
2021/07/11 08:33:55;;;;;;;1999.90;999.90;;;;;;;30.02;37.60;95570.84;5069773;28;20231;-75
2021/07/11 08:36:22;;;;;;;1999.90;999.90;;;;;;;30.25;36.44;95578.72;5069515;28;20207;-73
2021/07/11 08:38:49;;;;;;;1999.90;999.90;;;;;;;30.18;34.20;95565.50;5069827;28;20209;-74
2021/07/11 08:41:17;;;;;;;1999.90;999.90;;;;;;;30.24;31.88;95577.22;5069884;28;20208;-74
2021/07/11 08:43:46;;;;;;;1999.90;999.90;;;;;;;30.44;31.32;95569.84;5069432;28;20262;-75
2021/07/11 08:46:15;;;;;;;1999.90;999.90;;;;;;;30.44;31.18;95572.53;5069466;28;20193;-74
2021/07/11 08:48:43;;;;;;;1999.90;999.90;;;;;;;30.01;31.98;95569.31;5069603;28;20196;-74
2021/07/11 08:51:10;;;;;;;1999.90;999.90;;;;;;;30.12;32.19;95567.16;5069515;28;20204;-73
2021/07/11 08:53:38;;;;;;;1999.90;999.90;;;;;;;30.22;33.09;95571.53;5069630;28;20313;-73
2021/07/11 08:56:15;;;;;;;1999.90;999.90;;;;;;;30.27;32.45;95563.75;5069505;28;20223;-75
2021/07/11 08:58:48;;;;;;;1999.90;999.90;;;;;;;30.46;33.45;95562.16;5068844;28;20194;-75
2021/07/11 09:01:18;;;;;;;1999.90;999.90;;;;;;;30.56;31.51;95563.84;5068679;28;20181;-74
2021/07/11 09:03:45;;;;;;;1999.90;999.90;;;;;;;30.58;31.92;95566.09;5069758;28;20201;-74
2021/07/11 09:06:13;;;;;;;1999.90;999.90;;;;;;;30.69;32.85;95561.22;5069456;28;20224;-74
2021/07/11 09:08:43;;;;;;;1999.90;999.90;;;;;;;30.67;30.36;95558.22;5069576;28;20201;-74
2021/07/11 09:11:15;;;;;;;1999.90;999.90;;;;;;;30.52;30.28;95552.44;5069647;28;21009;-74
2021/07/11 09:13:42;;;;;;;1999.90;999.90;;;;;;;30.54;32.81;95555.44;5069111;28;20677;-74
2021/07/11 09:16:09;;;;;;;1999.90;999.90;;;;;;;30.63;30.20;95552.94;5068981;28;20200;-75
2021/07/11 09:18:38;;;;;;;1999.90;999.90;;;;;;;30.86;30.87;95549.28;5068613;28;20203;-74
2021/07/11 09:21:07;;;;;;;1999.90;999.90;;;;;;;30.70;30.38;95557.34;5068855;28;20200;-74
2021/07/11 09:23:36;;;;;;;1999.90;999.90;;;;;;;30.92;31.47;95560.25;5069351;28;20196;-74
2021/07/11 09:26:06;;;;;;;1999.90;999.90;;;;;;;30.65;30.80;95550.56;5069193;28;20211;-75
2021/07/11 09:28:35;;;;;;;1999.90;999.90;;;;;;;30.98;31.98;95547.81;5068774;28;20315;-73
2021/07/11 09:31:08;;;;;;;1999.90;999.90;;;;;;;30.94;30.69;95545.22;5068886;28;20196;-73
2021/07/11 09:33:39;;;;;;;1999.90;999.90;;;;;;;31.07;29.98;95548.75;5068825;28;20664;-73
2021/07/11 09:36:09;;;;;;;1999.90;999.90;;;;;;;31.06;30.22;95549.91;5069529;28;20622;-73
2021/07/11 09:38:36;;;;;;;1999.90;999.90;;;;;;;31.00;29.13;95542.78;5068849;28;20207;-73
2021/07/11 09:41:22;;;;;;;1999.90;999.90;;;;;;;31.04;29.84;95538.84;5068793;28;20195;-73
2021/07/11 09:43:50;;;;;;;1999.90;999.90;;;;;;;30.82;31.21;95534.44;5068951;28;20195;-74
2021/07/11 09:46:18;;;;;;;1999.90;999.90;;;;;;;30.96;29.65;95523.31;5068745;28;20200;-76
2021/07/11 09:48:47;;;;;;;1999.90;999.90;;;;;;;31.11;28.97;95527.16;5069046;28;20196;-74
2021/07/11 09:51:19;;;;;;;1999.90;999.90;;;;;;;31.12;29.68;95529.44;5068659;28;20196;-74
2021/07/11 09:53:48;;;;;;;1999.90;999.90;;;;;;;31.16;29.84;95530.06;5068909;28;20238;-74
2021/07/11 09:56:31;;;;;;;1999.90;999.90;;;;;;;31.34;28.87;95531.50;5068714;28;20255;-76
2021/07/11 09:59:01;;;;;;;1999.90;999.90;;;;;;;31.45;28.48;95530.03;5048897;28;20185;-75
2021/07/11 10:01:29;;;;;;;1999.90;999.90;;;;;;;31.37;28.50;95527.97;5048561;28;20197;-75
2021/07/11 10:03:59;;;;;;;1999.90;999.90;;;;;;;31.48;27.67;95529.16;5048467;28;20219;-76
2021/07/11 10:06:26;;;;;;;1999.90;999.90;;;;;;;31.48;27.82;95529.16;5048673;28;20235;-74
2021/07/11 10:08:53;;;;;;;1999.90;999.90;;;;;;;31.69;26.93;95527.81;5048447;28;20201;-75
2021/07/11 10:11:20;;;;;;;1999.90;999.90;;;;;;;31.69;28.31;95532.44;5048927;28;20201;-75
2021/07/11 10:13:48;;;;;;;1999.90;999.90;;;;;;;31.56;26.49;95525.13;5051905;28;20225;-74
2021/07/11 10:16:16;;;;;;;1999.90;999.90;;;;;;;31.68;26.64;95520.94;5052397;28;20201;-75
2021/07/11 10:18:46;;;;;;;1999.90;999.90;;;;;;;31.59;27.15;95518.13;5060486;28;20208;-76
2021/07/11 10:21:15;;;;;;;1999.90;999.90;;;;;;;31.48;26.47;95523.78;5072231;28;20196;-76
2021/07/11 10:23:42;;;;;;;1999.90;999.90;;;;;;;31.86;25.51;95523.09;5072497;28;20201;-75
2021/07/11 10:26:12;;;;;;;1999.90;999.90;;;;;;;32.08;25.16;95520.50;5072278;28;20215;-76
2021/07/11 10:28:42;;;;;;;1999.90;999.90;;;;;;;32.15;23.88;95526.44;5072003;28;20237;-76
2021/07/11 10:31:21;;;;;;;1999.90;999.90;;;;;;;32.05;23.11;95522.09;5072202;28;20197;-75
2021/07/11 10:33:49;;;;;;;1999.90;999.90;;;;;;;32.02;23.40;95517.59;5071820;28;20208;-76
2021/07/11 10:36:19;;;;;;;1999.90;999.90;;;;;;;31.81;25.12;95515.56;5071968;28;20188;-76
2021/07/11 10:38:52;;;;;;;1999.90;999.90;;;;;;;31.91;25.91;95511.81;5072300;28;20250;-75
2021/07/11 10:41:21;;;;;;;1999.90;999.90;;;;;;;31.93;25.88;95506.75;5072208;28;20193;-76
2021/07/11 10:44:02;;;;;;;1999.90;999.90;;;;;;;31.95;23.58;95497.06;5071889;28;20657;-75
2021/07/11 10:46:35;;;;;;;1999.90;999.90;;;;;;;31.88;25.77;95504.59;5071753;28;20569;-75
2021/07/11 10:49:12;;;;;;;1999.90;999.90;;;;;;;31.95;25.58;95496.31;5071797;28;20203;-75
2021/07/11 10:51:46;;;;;;;1999.90;999.90;;;;;;;32.16;25.49;95490.28;5071792;28;20192;-75
2021/07/11 10:54:21;;;;;;;1999.90;999.90;;;;;;;32.14;27.31;95492.66;5071867;28;20217;-76
2021/07/11 10:56:49;;;;;;;1999.90;999.90;;;;;;;32.12;26.21;95488.91;5071933;28;20203;-75
2021/07/11 10:59:29;;;;;;;1999.90;999.90;;;;;;;32.16;25.82;95487.59;5071923;28;20203;-77
2021/07/11 11:01:58;;;;;;;1999.90;999.90;;;;;;;32.34;26.92;95479.69;5072221;28;20185;-76